createdAt,value
2022-12-04T00:01:29.714Z,15.73
2022-12-04T00:03:59.425Z,16.90
2022-12-04T00:06:29.893Z,14.70
2022-12-04T00:08:58.690Z,14.03
2022-12-04T00:11:29.364Z,14.47
2022-12-04T00:14:03.116Z,14.00
2022-12-04T00:16:35.620Z,13.63
2022-12-04T00:19:05.008Z,14.97
2022-12-04T00:21:34.941Z,14.17
2022-12-04T00:24:03.670Z,13.47
2022-12-04T00:26:32.310Z,11.70
2022-12-04T00:29:01.185Z,11.77
2022-12-04T00:31:30.973Z,11.90
2022-12-04T00:34:00.632Z,11.47
2022-12-04T00:36:30.260Z,11.97
2022-12-04T00:39:01.672Z,11.13
2022-12-04T00:41:31.903Z,14.47
2022-12-04T00:44:01.237Z,12.30
2022-12-04T00:46:30.310Z,12.43
2022-12-04T00:49:01.797Z,11.37
2022-12-04T00:51:30.995Z,12.03
2022-12-04T00:54:01.007Z,11.20
2022-12-04T00:56:30.127Z,11.33
2022-12-04T00:59:01.167Z,12.07
2022-12-04T01:01:30.667Z,11.60
2022-12-04T01:03:59.439Z,12.73
2022-12-04T01:06:30.437Z,12.23
2022-12-04T01:09:03.399Z,12.33
2022-12-04T01:11:32.627Z,11.90
2022-12-04T01:14:01.737Z,11.80
2022-12-04T01:16:32.235Z,12.63
2022-12-04T01:19:01.453Z,11.27
2022-12-04T01:21:30.216Z,12.57
2022-12-04T01:23:59.025Z,11.57
2022-12-04T01:26:29.025Z,11.53
2022-12-04T01:28:57.895Z,11.37
2022-12-04T01:31:26.820Z,12.50
2022-12-04T01:33:55.447Z,12.27
2022-12-04T01:36:25.935Z,11.40
2022-12-04T01:38:55.109Z,12.47
2022-12-04T01:41:25.509Z,11.80
2022-12-04T01:44:13.374Z,12.40
2022-12-04T01:46:42.683Z,11.23
2022-12-04T01:49:13.912Z,12.30
2022-12-04T01:51:45.162Z,12.13
2022-12-04T01:54:19.058Z,11.90
2022-12-04T01:56:49.759Z,11.43
2022-12-04T01:59:22.566Z,12.43
2022-12-04T02:01:56.321Z,12.67
2022-12-04T02:04:25.118Z,13.00
2022-12-04T02:06:53.781Z,12.93
2022-12-04T02:09:26.721Z,13.67
2022-12-04T02:11:59.445Z,13.87
2022-12-04T02:14:34.181Z,14.00
2022-12-04T02:17:07.947Z,14.50
2022-12-04T02:19:52.694Z,13.03
2022-12-04T02:22:30.199Z,13.50
2022-12-04T02:25:02.568Z,14.90
2022-12-04T02:28:01.328Z,12.90
2022-12-04T02:30:32.226Z,12.50
2022-12-04T02:33:03.664Z,13.90
2022-12-04T02:35:35.165Z,13.60
2022-12-04T02:38:09.703Z,12.10
2022-12-04T02:40:42.743Z,12.03
2022-12-04T02:43:15.106Z,11.40
2022-12-04T02:45:47.301Z,12.40
2022-12-04T02:48:19.094Z,11.73
2022-12-04T02:50:49.396Z,11.80
2022-12-04T02:53:20.251Z,11.83
2022-12-04T02:55:52.682Z,11.70
2022-12-04T02:58:23.847Z,11.97
2022-12-04T03:00:55.036Z,12.00
2022-12-04T03:03:26.413Z,12.90
2022-12-04T03:05:59.293Z,11.07
2022-12-04T03:08:30.708Z,11.83
2022-12-04T03:11:01.315Z,10.67
2022-12-04T03:13:32.864Z,12.57
2022-12-04T03:16:06.943Z,12.30
2022-12-04T03:18:39.364Z,11.97
2022-12-04T03:21:11.229Z,12.97
2022-12-04T03:23:45.313Z,13.80
2022-12-04T03:26:17.897Z,11.27
2022-12-04T03:28:52.658Z,12.07
2022-12-04T03:31:26.395Z,11.60
2022-12-04T03:33:57.934Z,11.07
2022-12-04T03:36:29.714Z,10.57
2022-12-04T03:39:03.401Z,10.33
2022-12-04T03:41:37.951Z,12.20
2022-12-04T03:44:12.178Z,12.43
2022-12-04T03:46:46.957Z,11.77
2022-12-04T03:49:20.477Z,11.90
2022-12-04T03:51:52.420Z,12.10
2022-12-04T03:54:23.034Z,11.03
2022-12-04T03:56:54.205Z,11.87
2022-12-04T03:59:29.079Z,11.73
2022-12-04T04:02:01.453Z,12.30
2022-12-04T04:04:32.340Z,12.37
2022-12-04T04:07:04.715Z,11.70
2022-12-04T04:09:37.720Z,11.60
2022-12-04T04:12:08.910Z,11.00
2022-12-04T04:14:58.505Z,11.63
2022-12-04T04:17:50.270Z,10.93
2022-12-04T04:20:41.023Z,11.60
2022-12-04T04:23:28.749Z,10.13
2022-12-04T04:25:58.207Z,10.50
2022-12-04T04:28:34.517Z,11.20
2022-12-04T04:31:09.379Z,9.07
2022-12-04T04:33:47.203Z,10.37
2022-12-04T04:36:20.603Z,10.40
2022-12-04T04:38:55.331Z,9.47
2022-12-04T04:41:30.117Z,9.30
2022-12-04T04:44:02.418Z,9.80
2022-12-04T04:46:33.195Z,9.50
2022-12-04T04:49:05.255Z,9.20
2022-12-04T04:51:35.158Z,9.93
2022-12-04T04:54:07.647Z,10.37
2022-12-04T04:56:41.255Z,9.07
2022-12-04T04:59:09.912Z,9.83
2022-12-04T05:01:39.551Z,9.37
2022-12-04T05:04:09.888Z,9.27
2022-12-04T05:06:38.523Z,10.37
2022-12-04T05:09:07.266Z,9.90
2022-12-04T05:11:35.906Z,10.30
2022-12-04T05:14:05.912Z,9.57
2022-12-04T05:16:34.636Z,10.67
2022-12-04T05:19:23.127Z,10.17
2022-12-04T05:21:53.137Z,8.77
2022-12-04T05:24:21.717Z,11.23
2022-12-04T05:26:50.300Z,9.00
2022-12-04T05:29:18.895Z,9.33
2022-12-04T05:31:47.599Z,10.20
2022-12-04T05:34:16.261Z,9.30
2022-12-04T05:36:44.843Z,9.50
2022-12-04T05:39:14.837Z,10.60
2022-12-04T05:41:43.436Z,9.47
2022-12-04T05:44:12.039Z,9.67
2022-12-04T05:46:40.750Z,9.33
2022-12-04T05:49:09.426Z,9.60
2022-12-04T05:51:38.379Z,10.00
2022-12-04T05:54:07.044Z,9.80
2022-12-04T05:56:37.278Z,8.53
2022-12-04T05:59:05.854Z,9.63
2022-12-04T06:01:34.512Z,8.80
2022-12-04T06:04:03.163Z,9.70
2022-12-04T06:06:31.895Z,9.30
2022-12-04T06:09:01.561Z,10.43
2022-12-04T06:11:31.711Z,11.00
2022-12-04T06:14:03.736Z,10.50
2022-12-04T06:16:35.217Z,9.80
2022-12-04T06:19:06.408Z,9.80
2022-12-04T06:21:37.183Z,9.77
2022-12-04T06:24:06.863Z,12.50
2022-12-04T06:26:35.465Z,9.33
2022-12-04T06:29:05.503Z,9.60
2022-12-04T06:31:36.190Z,10.20
2022-12-04T06:34:05.706Z,9.10
2022-12-04T06:36:34.814Z,8.63
2022-12-04T06:39:03.886Z,8.53
2022-12-04T06:41:32.508Z,9.10
2022-12-04T06:44:01.132Z,9.93
2022-12-04T06:46:32.813Z,9.60
2022-12-04T06:49:02.952Z,10.20
2022-12-04T06:51:32.961Z,9.87
2022-12-04T06:54:02.371Z,10.03
2022-12-04T06:56:33.441Z,10.37
2022-12-04T06:59:03.259Z,9.07
2022-12-04T07:01:34.594Z,9.97
2022-12-04T07:04:04.329Z,9.50
2022-12-04T07:06:34.718Z,9.90
2022-12-04T07:09:05.672Z,9.13
2022-12-04T07:11:34.961Z,10.13
2022-12-04T07:14:03.704Z,9.73
2022-12-04T07:16:40.234Z,10.23
2022-12-04T07:19:09.881Z,9.17
2022-12-04T07:21:38.568Z,9.00
2022-12-04T07:24:07.638Z,10.03
2022-12-04T07:26:36.218Z,9.50
2022-12-04T07:29:04.841Z,9.40
2022-12-04T07:31:34.871Z,9.10
2022-12-04T07:34:03.521Z,9.47
2022-12-04T07:36:32.159Z,7.87
2022-12-04T07:39:00.750Z,8.43
2022-12-04T07:41:29.664Z,9.00
2022-12-04T07:43:58.355Z,9.90
2022-12-04T07:46:28.397Z,9.20
2022-12-04T07:48:59.713Z,8.83
2022-12-04T07:51:29.944Z,8.50
2022-12-04T07:54:03.216Z,7.97
2022-12-04T07:56:33.250Z,9.47
2022-12-04T07:59:02.231Z,8.77
2022-12-04T08:01:31.133Z,9.40
2022-12-04T08:04:03.177Z,8.80
2022-12-04T08:06:34.451Z,8.27
2022-12-04T08:09:09.281Z,9.30
2022-12-04T08:11:38.406Z,9.60
2022-12-04T08:14:08.815Z,9.33
2022-12-04T08:16:37.519Z,8.97
2022-12-04T08:19:07.559Z,10.40
2022-12-04T08:21:36.176Z,10.57
2022-12-04T08:24:04.844Z,9.73
2022-12-04T08:26:34.273Z,9.97
2022-12-04T08:29:03.368Z,9.30
2022-12-04T08:31:33.900Z,9.43
2022-12-04T08:34:04.719Z,10.40
2022-12-04T08:36:35.445Z,10.37
2022-12-04T08:39:04.782Z,9.23
2022-12-04T08:41:33.786Z,9.83
2022-12-04T08:44:02.674Z,9.67
2022-12-04T08:46:31.587Z,10.00
2022-12-04T08:49:00.289Z,14.03
2022-12-04T08:51:30.832Z,9.50
2022-12-04T08:54:02.360Z,10.40
2022-12-04T08:56:32.135Z,9.97
2022-12-04T08:59:01.552Z,9.80
2022-12-04T09:01:30.632Z,10.00
2022-12-04T09:03:59.890Z,10.20
2022-12-04T09:06:28.544Z,10.53
2022-12-04T09:08:58.076Z,10.70
2022-12-04T09:11:29.617Z,11.00
2022-12-04T09:13:58.207Z,10.50
2022-12-04T09:16:27.286Z,10.80
2022-12-04T09:18:57.440Z,12.40
2022-12-04T09:21:26.549Z,12.27
2022-12-04T09:23:55.211Z,10.90
2022-12-04T09:26:25.289Z,12.10
2022-12-04T09:28:56.305Z,12.47
2022-12-04T09:31:25.363Z,11.23
2022-12-04T09:33:54.136Z,11.93
2022-12-04T09:36:22.979Z,12.60
2022-12-04T09:38:53.460Z,12.00
2022-12-04T09:41:41.412Z,13.83
2022-12-04T09:44:17.606Z,13.30
2022-12-04T09:46:51.412Z,11.10
2022-12-04T09:49:23.114Z,11.37
2022-12-04T09:51:53.503Z,12.53
2022-12-04T09:54:24.540Z,13.13
2022-12-04T09:56:55.763Z,13.17
2022-12-04T09:59:27.503Z,12.60
2022-12-04T10:02:00.293Z,11.77
2022-12-04T10:04:28.978Z,11.90
2022-12-04T10:07:03.691Z,12.13
2022-12-04T10:09:37.989Z,12.77
2022-12-04T10:12:14.971Z,12.73
2022-12-04T10:14:55.544Z,12.47
2022-12-04T10:17:33.145Z,12.53
2022-12-04T10:20:06.039Z,12.47
2022-12-04T10:22:40.939Z,13.53
2022-12-04T10:25:14.596Z,12.87
2022-12-04T10:27:47.884Z,12.87
2022-12-04T10:30:21.807Z,13.30
2022-12-04T10:32:53.807Z,13.60
2022-12-04T10:35:24.115Z,11.43
2022-12-04T10:37:58.172Z,11.20
2022-12-04T10:40:30.554Z,11.83
2022-12-04T10:43:03.844Z,11.63
2022-12-04T10:45:33.840Z,10.40
2022-12-04T10:48:02.462Z,11.20
2022-12-04T10:50:31.121Z,12.10
2022-12-04T10:52:59.752Z,12.43
2022-12-04T10:55:30.843Z,11.47
2022-12-04T10:57:59.533Z,11.57
2022-12-04T11:00:30.727Z,11.87
2022-12-04T11:03:02.347Z,11.47
2022-12-04T11:05:33.597Z,12.33
2022-12-04T11:08:05.237Z,11.87
2022-12-04T11:10:36.698Z,11.20
2022-12-04T11:13:07.782Z,11.13
2022-12-04T11:15:37.507Z,11.90
2022-12-04T11:18:18.171Z,10.90
2022-12-04T11:20:52.265Z,11.43
2022-12-04T11:23:21.294Z,10.83
2022-12-04T11:25:51.479Z,10.60
2022-12-04T11:28:40.194Z,12.00
2022-12-04T11:31:11.364Z,10.63
2022-12-04T11:33:45.240Z,11.37
2022-12-04T11:36:21.024Z,11.47
2022-12-04T11:38:50.000Z,11.57
2022-12-04T11:41:26.784Z,11.27
2022-12-04T11:43:59.863Z,12.20
2022-12-04T11:46:30.746Z,10.87
2022-12-04T11:49:02.866Z,11.30
2022-12-04T11:51:40.410Z,11.73
2022-12-04T11:54:18.494Z,11.10
2022-12-04T11:56:50.601Z,11.50
2022-12-04T11:59:34.149Z,10.67
2022-12-04T12:02:14.576Z,11.00
2022-12-04T12:04:56.255Z,11.93
2022-12-04T12:07:32.727Z,12.00
2022-12-04T12:10:05.279Z,11.20
2022-12-04T12:12:42.572Z,11.60
2022-12-04T12:15:18.259Z,11.50
2022-12-04T12:17:51.356Z,11.70
2022-12-04T12:20:25.575Z,11.70
2022-12-04T12:23:03.827Z,11.73
2022-12-04T12:25:39.053Z,9.97
2022-12-04T12:28:16.761Z,11.27
2022-12-04T12:31:04.109Z,10.80
2022-12-04T12:33:37.069Z,10.57
2022-12-04T12:36:09.822Z,11.70
2022-12-04T12:38:40.506Z,10.80
2022-12-04T12:41:13.412Z,11.03
2022-12-04T12:43:44.315Z,10.90
2022-12-04T12:46:15.992Z,9.80
2022-12-04T12:48:47.636Z,11.20
2022-12-04T12:51:30.184Z,11.03
2022-12-04T12:54:05.611Z,10.93
2022-12-04T12:56:38.451Z,10.90
2022-12-04T12:59:11.678Z,11.10
2022-12-04T13:01:45.128Z,11.10
2022-12-04T13:04:17.188Z,11.90
2022-12-04T13:06:50.099Z,11.70
2022-12-04T13:09:25.373Z,11.00
2022-12-04T13:12:00.206Z,12.13
2022-12-04T13:14:28.821Z,10.60
2022-12-04T13:17:00.364Z,19.00
2022-12-04T13:19:30.991Z,11.77
2022-12-04T13:22:13.029Z,11.70
2022-12-04T13:24:57.001Z,11.97
2022-12-04T13:27:33.496Z,12.30
2022-12-04T13:30:11.828Z,10.27
2022-12-04T13:33:14.030Z,11.17
2022-12-04T13:36:16.199Z,11.63
2022-12-04T13:38:58.523Z,10.93
2022-12-04T13:41:28.267Z,11.20
2022-12-04T13:44:00.640Z,12.03
2022-12-04T13:46:34.112Z,11.20
2022-12-04T13:49:10.188Z,13.50
2022-12-04T13:51:41.126Z,11.83
2022-12-04T13:54:26.066Z,11.53
2022-12-04T13:56:56.475Z,12.50
2022-12-04T13:59:37.020Z,11.63
2022-12-04T14:02:23.062Z,11.27
2022-12-04T14:05:00.465Z,10.70
2022-12-04T14:07:32.257Z,11.70
2022-12-04T14:10:05.207Z,12.50
2022-12-04T14:12:36.383Z,11.97
2022-12-04T14:15:07.241Z,12.53
2022-12-04T14:17:37.361Z,13.20
2022-12-04T14:20:10.148Z,12.50
2022-12-04T14:22:44.033Z,12.17
2022-12-04T14:25:35.598Z,14.00
2022-12-04T14:28:22.941Z,12.03
2022-12-04T14:31:03.034Z,12.27
2022-12-04T14:33:32.671Z,12.13
2022-12-04T14:36:04.117Z,12.63
2022-12-04T14:38:33.845Z,13.10
2022-12-04T14:41:04.710Z,12.77
2022-12-04T14:43:39.997Z,11.67
2022-12-04T14:46:15.588Z,11.30
2022-12-04T14:48:49.838Z,11.90
2022-12-04T14:51:23.938Z,11.17
2022-12-04T14:53:57.275Z,11.67
2022-12-04T14:56:41.787Z,13.47
2022-12-04T14:59:16.883Z,11.67
2022-12-04T15:01:46.637Z,11.80
2022-12-04T15:04:22.454Z,12.47
2022-12-04T15:06:56.792Z,12.70
2022-12-04T15:09:46.691Z,12.03
2022-12-04T15:12:37.461Z,11.80
2022-12-04T15:15:14.616Z,11.60
2022-12-04T15:17:43.292Z,12.70
2022-12-04T15:20:15.820Z,12.30
2022-12-04T15:22:44.590Z,10.93
2022-12-04T15:25:18.645Z,10.67
2022-12-04T15:27:49.688Z,12.23
2022-12-04T15:30:20.296Z,12.10
2022-12-04T15:32:51.292Z,12.20
2022-12-04T15:35:23.246Z,12.23
2022-12-04T15:37:52.048Z,12.17
2022-12-04T15:40:22.992Z,12.57
2022-12-04T15:42:53.517Z,13.03
2022-12-04T15:45:25.716Z,12.53
2022-12-04T15:47:55.754Z,11.83
2022-12-04T15:50:26.993Z,13.40
2022-12-04T15:53:01.955Z,13.10
2022-12-04T15:55:32.318Z,12.60
2022-12-04T15:58:04.251Z,12.03
2022-12-04T16:00:34.944Z,12.70
2022-12-04T16:03:07.649Z,12.20
2022-12-04T16:05:37.425Z,15.33
2022-12-04T16:08:22.989Z,14.23
2022-12-04T16:10:59.552Z,11.80
2022-12-04T16:13:31.590Z,11.40
2022-12-04T16:16:01.108Z,10.60
2022-12-04T16:18:30.147Z,11.70
2022-12-04T16:20:58.817Z,13.97
2022-12-04T16:23:27.877Z,12.50
2022-12-04T16:25:56.565Z,12.67
2022-12-04T16:28:25.181Z,12.97
2022-12-04T16:30:55.264Z,11.87
2022-12-04T16:33:24.104Z,12.67
2022-12-04T16:35:52.668Z,13.10
2022-12-04T16:38:21.319Z,14.27
2022-12-04T16:40:49.898Z,15.83
2022-12-04T16:43:18.812Z,13.63
2022-12-04T16:45:49.424Z,14.23
2022-12-04T16:48:19.415Z,15.10
2022-12-04T16:50:48.277Z,13.00
2022-12-04T16:53:17.925Z,13.50
2022-12-04T16:55:47.858Z,15.07
2022-12-04T16:58:17.369Z,15.40
2022-12-04T17:00:50.429Z,13.33
2022-12-04T17:03:31.605Z,14.63
2022-12-04T17:06:01.280Z,13.60
2022-12-04T17:08:29.999Z,12.23
2022-12-04T17:10:59.035Z,13.23
2022-12-04T17:13:27.664Z,13.27
2022-12-04T17:15:56.320Z,14.57
2022-12-04T17:18:26.330Z,12.27
2022-12-04T17:20:54.978Z,12.57
2022-12-04T17:23:23.692Z,13.10
2022-12-04T17:25:52.335Z,12.80
2022-12-04T17:28:21.018Z,12.90
2022-12-04T17:30:49.686Z,12.57
2022-12-04T17:33:18.275Z,15.53
2022-12-04T17:35:48.298Z,13.60
2022-12-04T17:38:16.937Z,15.20
2022-12-04T17:40:45.609Z,14.30
2022-12-04T17:43:18.872Z,15.07
2022-12-04T17:45:50.466Z,13.13
2022-12-04T17:48:19.118Z,13.70
2022-12-04T17:50:49.114Z,12.10
2022-12-04T17:53:17.939Z,14.77
2022-12-04T17:55:46.527Z,14.20
2022-12-04T17:58:15.258Z,13.20
2022-12-04T18:00:43.884Z,14.93
2022-12-04T18:03:12.704Z,14.97
2022-12-04T18:05:41.427Z,15.00
2022-12-04T18:08:11.544Z,13.80
2022-12-04T18:10:40.217Z,13.97
2022-12-04T18:13:08.872Z,15.37
2022-12-04T18:15:37.488Z,15.57
2022-12-04T18:18:06.142Z,15.30
2022-12-04T18:20:34.794Z,15.90
2022-12-04T18:23:03.459Z,13.27
2022-12-04T18:25:33.438Z,13.10
2022-12-04T18:28:02.124Z,13.70
2022-12-04T18:30:30.724Z,14.03
2022-12-04T18:32:59.383Z,16.80
2022-12-04T18:35:28.006Z,16.05
2022-12-04T18:37:56.651Z,14.40
2022-12-04T18:40:25.324Z,14.77
2022-12-04T18:42:55.306Z,13.50
2022-12-04T18:45:25.748Z,13.37
2022-12-04T18:47:54.442Z,14.57
2022-12-04T18:50:23.247Z,13.60
2022-12-04T18:52:58.806Z,14.37
2022-12-04T18:55:29.692Z,14.73
2022-12-04T18:57:59.731Z,15.00
2022-12-04T19:00:28.534Z,14.23
2022-12-04T19:02:57.333Z,14.77
2022-12-04T19:05:25.953Z,14.87
2022-12-04T19:07:54.745Z,16.20
2022-12-04T19:10:24.173Z,14.27
2022-12-04T19:12:53.604Z,13.40
2022-12-04T19:15:23.671Z,14.00
2022-12-04T19:17:52.260Z,13.73
2022-12-04T19:20:21.293Z,13.83
2022-12-04T19:22:50.071Z,15.07
2022-12-04T19:25:18.729Z,15.80
2022-12-04T19:27:47.645Z,14.93
2022-12-04T19:30:16.354Z,14.90
2022-12-04T19:32:46.369Z,14.77
2022-12-04T19:35:15.057Z,16.30
2022-12-04T19:37:46.956Z,16.57
2022-12-04T19:40:20.058Z,16.40
2022-12-04T19:42:48.772Z,17.03
2022-12-04T19:45:17.735Z,14.63
2022-12-04T19:47:47.727Z,17.20
2022-12-04T19:50:16.604Z,15.37
2022-12-04T19:52:45.389Z,15.40
2022-12-04T19:55:14.083Z,15.57
2022-12-04T19:57:42.806Z,16.10
2022-12-04T20:00:12.045Z,15.00
2022-12-04T20:02:40.806Z,15.00
2022-12-04T20:05:11.276Z,16.17
2022-12-04T20:07:39.976Z,16.33
2022-12-04T20:10:09.440Z,17.00
2022-12-04T20:12:38.075Z,17.80
2022-12-04T20:15:07.219Z,17.03
2022-12-04T20:17:35.860Z,17.47
2022-12-04T20:20:04.914Z,16.70
2022-12-04T20:22:35.639Z,17.47
2022-12-04T20:25:04.658Z,17.57
2022-12-04T20:27:33.388Z,17.40
2022-12-04T20:30:02.090Z,16.77
2022-12-04T20:32:30.785Z,14.83
2022-12-04T20:34:59.365Z,18.37
2022-12-04T20:37:28.111Z,16.60
2022-12-04T20:39:58.367Z,15.70
2022-12-04T20:42:33.114Z,17.17
2022-12-04T20:45:02.842Z,15.37
2022-12-04T20:47:33.126Z,16.13
2022-12-04T20:50:01.826Z,16.77
2022-12-04T20:52:30.558Z,16.50
2022-12-04T20:55:00.535Z,16.90
2022-12-04T20:57:31.165Z,16.60
2022-12-04T20:59:59.815Z,15.27
2022-12-04T21:02:28.719Z,16.47
2022-12-04T21:04:57.440Z,17.83
2022-12-04T21:07:26.252Z,16.13
2022-12-04T21:09:55.281Z,15.70
2022-12-04T21:12:43.409Z,15.37
2022-12-04T21:15:29.696Z,16.63
2022-12-04T21:18:01.207Z,16.03
2022-12-04T21:20:29.949Z,16.27
2022-12-04T21:22:58.596Z,14.43
2022-12-04T21:25:27.881Z,16.17
2022-12-04T21:27:57.900Z,15.30
2022-12-04T21:30:26.576Z,15.90
2022-12-04T21:32:55.372Z,15.70
2022-12-04T21:35:23.993Z,14.80
2022-12-04T21:37:52.605Z,14.30
2022-12-04T21:40:21.285Z,14.50
2022-12-04T21:42:49.941Z,17.60
2022-12-04T21:45:20.054Z,15.50
2022-12-04T21:47:48.632Z,14.00
2022-12-04T21:50:17.322Z,13.50
2022-12-04T21:52:45.980Z,15.50
2022-12-04T21:55:14.705Z,13.90
2022-12-04T21:57:43.400Z,14.83
2022-12-04T22:00:13.368Z,14.13
2022-12-04T22:02:43.329Z,15.07
2022-12-04T22:05:12.028Z,14.47
2022-12-04T22:07:40.697Z,15.13
2022-12-04T22:10:11.012Z,14.50
2022-12-04T22:12:49.533Z,14.10
2022-12-04T22:15:18.749Z,12.90
2022-12-04T22:17:48.752Z,13.60
2022-12-04T22:20:18.180Z,12.33
2022-12-04T22:22:46.902Z,11.30
2022-12-04T22:25:15.893Z,12.40
2022-12-04T22:27:44.533Z,11.03
2022-12-04T22:30:14.068Z,11.90
2022-12-04T22:32:42.656Z,12.00
2022-12-04T22:35:12.738Z,11.13
2022-12-04T22:37:44.582Z,10.70
2022-12-04T22:40:14.205Z,12.07
2022-12-04T22:42:42.917Z,11.90
2022-12-04T22:45:12.147Z,11.63
2022-12-04T22:47:40.858Z,11.00
2022-12-04T22:50:09.902Z,11.33
2022-12-04T22:52:40.110Z,11.57
2022-12-04T22:55:09.172Z,12.00
2022-12-04T22:57:37.904Z,10.03
2022-12-04T23:00:09.275Z,9.77
2022-12-04T23:02:37.989Z,10.30
2022-12-04T23:05:06.780Z,9.90
2022-12-04T23:07:35.520Z,9.87
2022-12-04T23:10:07.166Z,9.40
2022-12-04T23:12:35.771Z,10.57
2022-12-04T23:15:04.674Z,9.00
2022-12-04T23:17:33.320Z,8.77
2022-12-04T23:20:01.960Z,9.03
2022-12-04T23:22:30.615Z,10.30
2022-12-04T23:24:59.235Z,9.40
2022-12-04T23:27:29.216Z,9.27
2022-12-04T23:29:57.851Z,10.23
2022-12-04T23:32:26.437Z,10.73
2022-12-04T23:34:55.072Z,9.60
2022-12-04T23:37:23.626Z,9.80
2022-12-04T23:39:52.247Z,10.10
2022-12-04T23:42:20.904Z,10.03
2022-12-04T23:44:50.967Z,9.70
2022-12-04T23:47:19.620Z,9.93
2022-12-04T23:49:48.482Z,9.53
2022-12-04T23:52:17.123Z,8.00
2022-12-04T23:54:45.809Z,8.20
2022-12-04T23:57:14.470Z,8.90
2022-12-04T23:59:43.097Z,7.33
